createdAt,value
2023-05-09T00:04:30.312Z,101017.97
2023-05-09T00:09:31.973Z,101021.19
2023-05-09T00:14:33.749Z,101012.50
2023-05-09T00:19:35.375Z,101012.97
2023-05-09T00:24:37.033Z,101009.81
2023-05-09T00:29:38.938Z,101013.34
2023-05-09T00:34:40.584Z,101006.50
2023-05-09T00:39:42.220Z,100999.53
2023-05-09T00:44:43.889Z,100992.81
2023-05-09T00:49:45.725Z,100998.22
2023-05-09T00:54:47.432Z,100999.31
2023-05-09T00:59:49.163Z,100997.22
2023-05-09T01:04:50.877Z,100998.34
2023-05-09T01:10:14.217Z,100998.13
2023-05-09T01:15:31.289Z,100983.31
2023-05-09T01:20:41.069Z,100980.03
2023-05-09T01:26:26.207Z,100977.72
2023-05-09T01:31:28.827Z,100964.25
2023-05-09T01:36:33.103Z,100957.47
2023-05-09T01:41:37.570Z,100957.00
2023-05-09T01:46:39.914Z,100969.09
2023-05-09T01:51:43.969Z,100956.75
2023-05-09T01:56:47.210Z,100951.00
2023-05-09T02:01:49.857Z,100947.84
2023-05-09T02:06:52.158Z,100950.78
2023-05-09T02:11:54.336Z,100940.50
2023-05-09T02:16:57.695Z,100947.97
2023-05-09T02:21:59.420Z,100944.91
2023-05-09T02:27:03.016Z,100945.59
2023-05-09T02:32:10.191Z,100950.94
2023-05-09T02:37:13.662Z,100943.25
2023-05-09T02:42:21.251Z,100944.34
2023-05-09T02:47:23.230Z,100940.53
2023-05-09T02:52:24.996Z,100932.72
2023-05-09T02:57:26.881Z,100929.66
2023-05-09T03:02:28.623Z,100938.91
2023-05-09T03:07:30.853Z,100938.38
2023-05-09T03:12:33.520Z,100929.94
2023-05-09T03:17:35.574Z,100932.13
2023-05-09T03:22:37.346Z,100935.53
2023-05-09T03:27:41.637Z,100928.47
2023-05-09T03:32:49.296Z,100927.97
2023-05-09T03:37:51.274Z,100920.13
2023-05-09T03:42:53.201Z,100920.38
2023-05-09T03:47:55.301Z,100916.09
2023-05-09T03:52:57.147Z,100912.66
2023-05-09T03:57:59.004Z,100915.47
2023-05-09T04:03:00.992Z,100910.09
2023-05-09T04:08:08.820Z,100916.56
2023-05-09T04:13:11.288Z,100911.94
2023-05-09T04:18:13.627Z,100914.50
2023-05-09T04:23:15.551Z,100912.09
2023-05-09T04:28:17.760Z,100906.63
2023-05-09T04:33:20.168Z,100911.31
2023-05-09T04:38:23.105Z,100910.50
2023-05-09T04:43:27.927Z,100912.34
2023-05-09T04:48:29.709Z,100904.28
2023-05-09T04:53:32.015Z,100903.84
2023-05-09T04:58:38.400Z,100890.16
2023-05-09T05:03:44.177Z,100885.97
2023-05-09T05:08:46.099Z,100879.09
2023-05-09T05:13:47.823Z,100886.41
2023-05-09T05:18:49.599Z,100880.94
2023-05-09T05:23:52.754Z,100882.50
2023-05-09T05:28:57.129Z,100875.16
2023-05-09T05:34:00.477Z,100875.13
2023-05-09T05:39:02.610Z,100874.41
2023-05-09T05:44:04.495Z,100867.81
2023-05-09T05:49:06.972Z,100868.66
2023-05-09T05:54:09.349Z,100865.28
2023-05-09T05:59:13.409Z,100852.41
2023-05-09T06:04:15.775Z,100848.69
2023-05-09T06:09:17.544Z,100838.00
2023-05-09T06:14:19.683Z,100831.00
2023-05-09T06:19:21.534Z,100826.44
2023-05-09T06:24:34.352Z,100835.66
2023-05-09T06:29:38.413Z,100825.41
2023-05-09T06:34:42.129Z,100819.56
2023-05-09T06:39:43.799Z,100819.34
2023-05-09T06:44:45.498Z,100808.25
2023-05-09T06:49:47.184Z,100805.91
2023-05-09T06:54:48.838Z,100805.25
2023-05-09T06:59:50.721Z,100791.59
2023-05-09T07:04:52.426Z,100796.13
2023-05-09T07:10:00.617Z,100777.50
2023-05-09T07:15:09.880Z,100758.38
2023-05-09T07:20:11.656Z,100771.16
2023-05-09T07:25:13.725Z,100767.19
2023-05-09T07:30:15.907Z,100763.88
2023-05-09T07:35:19.200Z,100758.84
2023-05-09T07:40:20.889Z,100760.03
2023-05-09T07:45:23.927Z,100743.13
2023-05-09T07:50:26.302Z,100733.72
2023-05-09T07:55:27.944Z,100723.22
2023-05-09T08:00:29.598Z,100718.34
2023-05-09T08:05:31.268Z,100715.59
2023-05-09T08:10:33.687Z,100721.19
2023-05-09T08:15:35.405Z,100719.56
2023-05-09T08:20:37.452Z,100696.47
2023-05-09T08:25:39.204Z,100699.41
2023-05-09T08:30:41.191Z,100695.53
2023-05-09T08:35:43.505Z,100688.56
2023-05-09T08:40:45.300Z,100671.09
2023-05-09T08:45:51.402Z,100666.16
2023-05-09T08:50:52.983Z,100666.19
2023-05-09T08:55:54.740Z,100658.88
2023-05-09T09:00:56.544Z,100659.53
2023-05-09T09:05:58.488Z,100651.41
2023-05-09T09:11:00.461Z,100654.50
2023-05-09T09:16:02.267Z,100652.28
2023-05-09T09:21:10.376Z,100631.19
2023-05-09T09:26:12.042Z,100633.06
2023-05-09T09:31:24.123Z,100641.03
2023-05-09T09:36:36.642Z,100648.63
2023-05-09T09:41:39.465Z,100640.53
2023-05-09T09:46:46.405Z,100646.16
2023-05-09T09:51:55.128Z,100633.19
2023-05-09T09:56:56.980Z,100618.75
2023-05-09T10:02:07.552Z,100617.47
2023-05-09T10:07:13.843Z,100623.16
2023-05-09T10:12:19.706Z,100608.22
2023-05-09T10:17:22.742Z,100606.59
2023-05-09T10:22:24.961Z,100602.03
2023-05-09T10:27:27.941Z,100602.72
2023-05-09T10:32:48.439Z,100585.47
2023-05-09T10:37:50.190Z,100589.22
2023-05-09T10:42:51.857Z,100583.69
2023-05-09T10:47:54.082Z,100564.09
2023-05-09T10:53:05.067Z,100547.63
2023-05-09T10:58:27.948Z,100543.34
2023-05-09T11:03:53.222Z,100533.56
2023-05-09T11:08:54.980Z,100529.53
2023-05-09T11:13:58.145Z,100516.84
2023-05-09T11:18:59.760Z,100513.97
2023-05-09T11:24:16.461Z,100496.28
2023-05-09T11:29:18.151Z,100486.75
2023-05-09T11:34:20.049Z,100468.50
2023-05-09T11:39:25.357Z,100457.44
2023-05-09T11:44:28.157Z,100452.13
2023-05-09T11:49:29.850Z,100456.53
2023-05-09T11:54:31.643Z,100438.34
2023-05-09T11:59:36.710Z,100431.00
2023-05-09T12:04:38.921Z,100425.22
2023-05-09T12:09:40.793Z,100426.00
2023-05-09T12:14:42.619Z,100416.81
2023-05-09T12:19:44.422Z,100402.94
2023-05-09T12:24:46.084Z,100398.41
2023-05-09T12:29:48.302Z,100384.56
2023-05-09T12:34:51.539Z,100384.91
2023-05-09T12:40:15.588Z,100373.91
2023-05-09T12:45:18.368Z,100375.13
2023-05-09T12:50:20.306Z,100358.19
2023-05-09T12:55:22.023Z,100357.97
2023-05-09T13:00:23.829Z,100348.97
2023-05-09T13:05:25.501Z,100354.16
2023-05-09T13:10:29.043Z,100331.31
2023-05-09T13:15:30.798Z,100329.81
2023-05-09T13:20:32.565Z,100317.53
2023-05-09T13:25:34.254Z,100313.88
2023-05-09T13:30:36.134Z,100303.53
2023-05-09T13:35:37.764Z,100286.53
2023-05-09T13:40:39.471Z,100278.69
2023-05-09T13:45:41.280Z,100269.59
2023-05-09T13:50:42.982Z,100262.47
2023-05-09T13:55:45.615Z,100247.13
2023-05-09T14:00:47.388Z,100239.16
2023-05-09T14:05:49.543Z,100236.81
2023-05-09T14:10:51.321Z,100225.88
2023-05-09T14:15:53.222Z,100226.09
2023-05-09T14:20:55.088Z,100211.56
2023-05-09T14:25:57.359Z,100201.50
2023-05-09T14:30:59.163Z,100209.50
2023-05-09T14:36:02.833Z,100186.13
2023-05-09T14:41:05.075Z,100186.44
2023-05-09T14:46:06.883Z,100180.97
2023-05-09T14:51:08.741Z,100177.13
2023-05-09T14:56:11.725Z,100169.97
2023-05-09T15:01:13.413Z,100176.06
2023-05-09T15:06:15.525Z,100158.59
2023-05-09T15:11:17.267Z,100152.53
2023-05-09T15:16:19.592Z,100150.00
2023-05-09T15:21:21.352Z,100147.69
2023-05-09T15:26:23.024Z,100136.13
2023-05-09T15:31:25.583Z,100135.88
2023-05-09T15:36:30.091Z,100136.72
2023-05-09T15:41:32.218Z,100123.25
2023-05-09T15:46:34.140Z,100132.09
2023-05-09T15:51:35.904Z,100126.19
2023-05-09T15:56:37.550Z,100120.53
2023-05-09T16:01:39.230Z,100116.75
2023-05-09T16:06:41.930Z,100106.84
2023-05-09T16:11:43.704Z,100103.06
2023-05-09T16:16:47.129Z,100096.75
2023-05-09T16:21:48.873Z,100093.59
2023-05-09T16:26:50.675Z,100088.78
2023-05-09T16:31:52.581Z,100086.25
2023-05-09T16:36:54.329Z,100075.31
2023-05-09T16:41:57.014Z,100076.78
2023-05-09T16:46:58.728Z,100070.22
2023-05-09T16:52:00.499Z,100057.63
2023-05-09T16:57:03.308Z,100063.09
2023-05-09T17:02:05.061Z,100051.09
2023-05-09T17:07:06.711Z,100044.38
2023-05-09T17:12:14.702Z,100041.00
2023-05-09T17:17:17.741Z,100036.38
2023-05-09T17:22:19.395Z,100036.78
2023-05-09T17:27:21.011Z,100030.69
2023-05-09T17:32:22.745Z,100025.19
2023-05-09T17:37:24.462Z,100027.22
2023-05-09T17:42:26.231Z,100018.19
2023-05-09T17:47:28.871Z,100009.75
2023-05-09T17:52:30.610Z,100017.94
2023-05-09T17:57:32.294Z,100007.63
2023-05-09T18:02:34.001Z,100009.66
2023-05-09T18:07:35.912Z,100011.88
2023-05-09T18:12:37.827Z,100012.50
2023-05-09T18:17:39.866Z,99998.38
2023-05-09T18:22:41.546Z,100003.56
2023-05-09T18:27:43.198Z,99993.06
2023-05-09T18:32:44.870Z,99991.72
2023-05-09T18:37:46.785Z,99996.31
2023-05-09T18:42:48.733Z,99996.88
2023-05-09T18:47:50.462Z,99997.22
2023-05-09T18:52:52.210Z,99996.13
2023-05-09T18:57:54.116Z,99997.47
2023-05-09T19:02:55.882Z,99985.00
2023-05-09T19:07:57.656Z,99982.69
2023-05-09T19:12:59.443Z,99980.69
2023-05-09T19:18:02.056Z,99972.41
2023-05-09T19:23:04.330Z,99968.16
2023-05-09T19:28:06.322Z,99965.25
2023-05-09T19:33:08.081Z,99977.75
2023-05-09T19:38:11.903Z,99971.19
2023-05-09T19:43:14.180Z,99970.47
2023-05-09T19:48:16.023Z,99959.28
2023-05-09T19:53:17.810Z,99964.91
2023-05-09T19:58:19.995Z,99955.38
2023-05-09T20:03:21.833Z,99950.47
2023-05-09T20:08:25.474Z,99953.50
2023-05-09T20:13:27.774Z,99949.03
2023-05-09T20:18:33.234Z,99951.94
2023-05-09T20:23:35.316Z,99939.69
2023-05-09T20:28:38.122Z,99943.53
2023-05-09T20:33:40.951Z,99931.38
2023-05-09T20:38:42.602Z,99922.91
2023-05-09T20:43:44.550Z,99917.84
2023-05-09T20:48:46.957Z,99920.94
2023-05-09T20:53:48.778Z,99908.97
2023-05-09T20:58:50.527Z,99906.06
2023-05-09T21:03:52.247Z,99900.31
2023-05-09T21:08:53.895Z,99899.66
2023-05-09T21:13:55.684Z,99899.13
2023-05-09T21:18:58.658Z,99875.22
2023-05-09T21:24:03.320Z,99874.94
2023-05-09T21:29:05.328Z,99865.78
2023-05-09T21:34:10.311Z,99864.66
2023-05-09T21:39:12.135Z,99861.19
2023-05-09T21:44:13.847Z,99862.31
2023-05-09T21:49:21.577Z,99865.59
2023-05-09T21:54:23.475Z,99856.97
2023-05-09T21:59:26.431Z,99849.19
2023-05-09T22:04:28.286Z,99852.09
2023-05-09T22:09:29.930Z,99843.88
2023-05-09T22:14:33.479Z,99845.66
2023-05-09T22:19:38.275Z,99842.94
2023-05-09T22:24:42.783Z,99835.56
2023-05-09T22:29:45.698Z,99836.19
2023-05-09T22:34:48.184Z,99833.28
2023-05-09T22:39:49.927Z,99831.78
2023-05-09T22:44:52.792Z,99824.78
2023-05-09T22:49:54.578Z,99816.72
2023-05-09T22:54:56.355Z,99806.44
2023-05-09T22:59:58.031Z,99805.69
2023-05-09T23:33:04.221Z,99773.94
2023-05-09T23:38:06.323Z,99778.22
2023-05-09T23:43:07.963Z,99765.59
2023-05-09T23:48:09.862Z,99765.13
2023-05-09T23:53:12.118Z,99760.59
2023-05-09T23:58:14.172Z,99758.66
